Time;durP1;ratioP1;P1;durP2;ratioP2;P2;SDS_P1;SDS_P2;PMS_P1;PMS_P2;Temp;Humidity;BMP_temperature;BMP_pressure;BME280_temperature;BME280_humidity;BME280_pressure;Samples;Min_cycle;Max_cycle;Signal;HPM_P1;HPM_P2
2023/04/14 00:01:27;;;;;;;6.30;1.27;;;12.20;84.10;;;;;;7413879;19;19914;-80
2023/04/14 00:03:53;;;;;;;6.32;0.80;;;12.20;82.90;;;;;;7417795;19;19922;-80
2023/04/14 00:06:19;;;;;;;3.85;0.70;;;12.10;78.10;;;;;;7421241;19;19930;-80
2023/04/14 00:08:48;;;;;;;3.40;0.85;;;12.10;74.50;;;;;;7424022;19;19934;-81
2023/04/14 00:11:14;;;;;;;1.70;0.55;;;12.10;74.00;;;;;;7422827;19;19914;-81
2023/04/14 00:13:39;;;;;;;3.20;0.80;;;12.10;73.00;;;;;;7422770;19;19996;-81
2023/04/14 00:16:07;;;;;;;4.00;0.90;;;12.10;72.90;;;;;;7419199;19;19925;-81
2023/04/14 00:18:32;;;;;;;4.70;0.80;;;12.00;74.80;;;;;;7421787;19;19946;-80
2023/04/14 00:20:58;;;;;;;4.93;1.08;;;12.00;75.80;;;;;;7424656;19;19983;-80
2023/04/14 00:23:24;;;;;;;2.35;0.50;;;12.00;76.80;;;;;;7422610;19;19914;-81
2023/04/14 00:25:50;;;;;;;2.60;0.73;;;12.00;71.90;;;;;;7422842;19;19923;-82
2023/04/14 00:28:16;;;;;;;3.92;0.70;;;12.00;71.30;;;;;;7421869;19;19911;-81
2023/04/14 00:30:42;;;;;;;4.60;0.88;;;12.00;71.40;;;;;;7424220;19;19944;-82
2023/04/14 00:33:07;;;;;;;3.10;0.80;;;12.10;77.90;;;;;;7418232;19;19922;-81
2023/04/14 00:35:33;;;;;;;5.18;0.70;;;12.00;75.80;;;;;;7398836;19;19918;-81
2023/04/14 00:37:59;;;;;;;2.80;0.47;;;12.20;74.00;;;;;;7422280;19;20366;-82
2023/04/14 00:40:25;;;;;;;2.05;0.50;;;12.10;69.90;;;;;;7420386;19;19919;-81
2023/04/14 00:42:50;;;;;;;3.88;0.73;;;12.10;68.60;;;;;;7421012;19;20035;-81
2023/04/14 00:45:16;;;;;;;1.55;0.45;;;12.20;67.60;;;;;;7420970;19;19935;-80
2023/04/14 00:47:47;;;;;;;1.27;0.30;;;12.30;65.70;;;;;;7421504;19;19929;-81
2023/04/14 00:50:15;;;;;;;1.45;0.30;;;12.30;65.40;;;;;;7395919;19;19985;-81
2023/04/14 00:52:45;;;;;;;2.95;0.50;;;12.30;64.60;;;;;;7422001;19;20350;-81
2023/04/14 00:55:11;;;;;;;3.35;0.28;;;12.30;64.70;;;;;;7421672;19;19922;-81
2023/04/14 00:57:38;;;;;;;2.10;0.30;;;12.40;64.10;;;;;;7372029;19;19938;-81
2023/04/14 01:00:05;;;;;;;2.55;0.43;;;12.40;63.80;;;;;;7420306;19;20355;-82
2023/04/14 01:02:32;;;;;;;1.58;0.40;;;12.50;63.20;;;;;;7418463;19;19903;-81
2023/04/14 01:04:59;;;;;;;0.73;0.20;;;12.40;63.40;;;;;;7423317;19;19959;-81
2023/04/14 01:07:27;;;;;;;4.00;0.65;;;12.40;62.90;;;;;;7417900;19;19915;-80
2023/04/14 01:09:56;;;;;;;2.33;0.40;;;12.50;63.20;;;;;;7422580;19;20303;-81
2023/04/14 01:12:42;;;;;;;1.52;0.50;;;12.50;62.90;;;;;;7423977;19;20278;-81
2023/04/14 01:15:17;;;;;;;1.27;0.30;;;12.50;62.90;;;;;;7419985;19;19951;-81
2023/04/14 01:18:42;;;;;;;1.30;0.32;;;12.40;63.10;;;;;;7422620;19;19918;-81
2023/04/14 01:21:12;;;;;;;0.85;0.30;;;12.40;62.90;;;;;;7396260;19;19922;-80
2023/04/14 01:23:44;;;;;;;0.57;0.13;;;12.40;62.90;;;;;;7422985;19;19914;-81
2023/04/14 01:26:30;;;;;;;3.42;0.30;;;12.40;62.90;;;;;;7420107;19;19910;-81
2023/04/14 01:29:22;;;;;;;3.22;0.40;;;12.50;62.90;;;;;;7426204;19;19914;-81
2023/04/14 01:31:53;;;;;;;1.75;0.38;;;12.50;62.80;;;;;;7420190;19;19911;-80
2023/04/14 01:34:35;;;;;;;0.77;0.20;;;12.40;62.90;;;;;;7422605;19;19915;-81
2023/04/14 01:37:32;;;;;;;5.10;0.40;;;12.40;63.00;;;;;;7424106;19;19922;-80
2023/04/14 01:40:04;;;;;;;2.72;0.30;;;12.30;63.00;;;;;;7422268;19;19923;-80
2023/04/14 01:42:35;;;;;;;1.10;0.50;;;12.30;63.10;;;;;;7422058;19;20242;-80
2023/04/14 01:45:26;;;;;;;0.82;0.38;;;12.30;63.10;;;;;;7423436;19;19922;-82
2023/04/14 01:47:52;;;;;;;;;;;12.30;63.30;;;;;;7421985;19;19914;-81
2023/04/14 01:50:20;;;;;;;2.08;0.40;;;12.20;63.30;;;;;;7420052;19;19922;-81
2023/04/14 01:52:50;;;;;;;2.67;0.43;;;12.10;63.70;;;;;;7419364;19;19948;-81
2023/04/14 01:55:18;;;;;;;3.67;0.50;;;12.10;63.80;;;;;;7418247;19;19946;-80
2023/04/14 01:57:50;;;;;;;1.77;0.40;;;12.00;64.80;;;;;;7419668;19;19915;-81
2023/04/14 02:00:18;;;;;;;3.45;0.40;;;12.00;64.80;;;;;;7421668;19;20335;-80
2023/04/14 02:02:47;;;;;;;1.63;0.52;;;12.00;66.20;;;;;;7420145;19;20372;-81
2023/04/14 02:05:14;;;;;;;3.17;0.60;;;11.80;65.80;;;;;;7420057;19;19922;-81
2023/04/14 02:07:41;;;;;;;1.67;0.47;;;11.80;66.30;;;;;;7421086;19;19973;-81
2023/04/14 02:10:09;;;;;;;3.83;0.70;;;11.80;66.60;;;;;;7419026;19;19925;-81
2023/04/14 02:12:40;;;;;;;4.78;1.25;;;11.80;69.40;;;;;;7419995;19;19919;-81
2023/04/14 02:15:12;;;;;;;5.32;1.10;;;11.70;71.00;;;;;;7420875;19;19914;-81
2023/04/14 02:17:41;;;;;;;5.03;1.23;;;11.60;71.90;;;;;;7423841;19;19920;-81
2023/04/14 02:20:14;;;;;;;8.18;1.42;;;11.40;72.80;;;;;;7420444;19;19914;-80
2023/04/14 02:22:40;;;;;;;9.10;1.73;;;11.30;74.50;;;;;;7418196;19;20188;-82
2023/04/14 02:25:06;;;;;;;5.07;1.20;;;11.20;75.40;;;;;;7420704;19;20009;-81
2023/04/14 02:27:40;;;;;;;4.70;1.02;;;11.00;75.20;;;;;;7421506;19;19918;-81
2023/04/14 02:30:13;;;;;;;3.88;0.55;;;11.10;73.40;;;;;;7422639;19;19910;-81
2023/04/14 02:32:44;;;;;;;4.57;0.95;;;11.10;72.50;;;;;;7423073;19;20323;-83
2023/04/14 02:35:15;;;;;;;4.60;0.60;;;11.20;71.70;;;;;;7416587;19;19955;-80
2023/04/14 02:37:47;;;;;;;2.00;0.60;;;11.30;70.90;;;;;;7421845;19;19911;-80
2023/04/14 02:40:36;;;;;;;5.18;0.90;;;11.20;71.10;;;;;;7420643;19;19922;-81
2023/04/14 02:43:12;;;;;;;3.13;0.90;;;11.10;72.30;;;;;;7421987;19;19919;-81
2023/04/14 02:45:41;;;;;;;3.65;0.98;;;11.00;73.40;;;;;;7420772;19;19933;-81
2023/04/14 02:48:10;;;;;;;3.67;1.08;;;11.00;74.40;;;;;;7420244;19;19907;-82
2023/04/14 02:50:38;;;;;;;4.85;0.90;;;10.90;75.20;;;;;;7399847;19;19915;-81
2023/04/14 02:53:06;;;;;;;5.57;1.10;;;10.80;75.70;;;;;;7416602;19;19947;-81
2023/04/14 02:55:32;;;;;;;5.60;1.13;;;10.80;75.40;;;;;;7423010;19;19914;-81
2023/04/14 02:57:59;;;;;;;7.10;1.50;;;10.80;75.30;;;;;;7422701;19;19925;-82
2023/04/14 03:00:27;;;;;;;4.95;1.20;;;10.80;76.70;;;;;;7365829;19;19951;-82
2023/04/14 03:02:54;;;;;;;5.07;1.50;;;10.70;77.80;;;;;;7423114;19;19915;-81
2023/04/14 03:05:20;;;;;;;6.20;1.38;;;10.70;77.90;;;;;;7421848;19;19918;-81
2023/04/14 03:07:48;;;;;;;5.32;1.40;;;10.50;78.10;;;;;;7422673;19;19930;-81
2023/04/14 03:10:14;;;;;;;6.78;1.00;;;10.60;78.60;;;;;;7420462;19;19919;-82
2023/04/14 03:12:42;;;;;;;5.13;0.90;;;10.50;78.30;;;;;;7421068;19;19958;-81
2023/04/14 03:15:09;;;;;;;4.97;0.80;;;10.40;77.80;;;;;;7417294;19;19942;-82
2023/04/14 03:17:36;;;;;;;4.07;0.90;;;10.40;78.00;;;;;;7420563;19;19922;-81
2023/04/14 03:20:02;;;;;;;;;;;10.30;78.20;;;;;;7424353;19;19919;-82
2023/04/14 03:22:29;;;;;;;2.35;0.80;;;10.40;77.80;;;;;;7418775;19;19921;-81
2023/04/14 03:24:59;;;;;;;;;;;10.40;77.50;;;;;;7419514;19;19922;-81
2023/04/14 03:27:31;;;;;;;4.70;1.10;;;10.30;77.70;;;;;;7418793;19;19918;-81
2023/04/14 03:30:05;;;;;;;2.60;0.63;;;10.30;78.00;;;;;;7421718;19;19998;-81
2023/04/14 03:32:40;;;;;;;2.88;0.40;;;10.40;77.60;;;;;;7421994;19;19929;-81
2023/04/14 03:35:07;;;;;;;2.05;0.63;;;10.50;77.10;;;;;;7420196;19;19922;-82
2023/04/14 03:37:38;;;;;;;4.05;1.45;;;10.40;77.10;;;;;;7423415;19;20305;-80
2023/04/14 03:40:07;;;;;;;3.50;0.60;;;10.30;77.40;;;;;;7422382;19;19925;-82
2023/04/14 03:42:35;;;;;;;2.60;0.77;;;10.20;77.60;;;;;;7426769;19;19919;-80
2023/04/14 03:45:02;;;;;;;3.38;0.70;;;10.20;78.00;;;;;;7424970;19;19941;-82
2023/04/14 03:47:30;;;;;;;4.95;0.80;;;10.20;77.80;;;;;;7428753;19;19994;-81
2023/04/14 03:49:59;;;;;;;1.60;0.50;;;10.20;77.90;;;;;;7392606;19;19933;-81
2023/04/14 03:52:34;;;;;;;1.70;0.40;;;10.20;77.90;;;;;;7402705;19;19919;-81
2023/04/14 03:55:05;;;;;;;2.58;0.50;;;10.20;78.20;;;;;;7426137;19;19950;-82
2023/04/14 03:57:32;;;;;;;3.92;0.70;;;10.40;77.80;;;;;;7424653;19;19919;-81
2023/04/14 04:00:03;;;;;;;2.25;0.57;;;10.50;77.20;;;;;;7423263;19;19918;-82
2023/04/14 04:02:29;;;;;;;3.33;0.55;;;10.50;77.20;;;;;;7419024;19;19915;-82
2023/04/14 04:04:57;;;;;;;1.73;0.40;;;10.40;77.20;;;;;;7424197;19;19921;-82
2023/04/14 04:07:25;;;;;;;1.90;0.45;;;10.30;77.70;;;;;;7421947;19;19949;-81
2023/04/14 04:09:52;;;;;;;1.85;0.45;;;10.50;77.70;;;;;;7423093;19;19925;-82
2023/04/14 04:12:19;;;;;;;2.80;0.40;;;10.50;77.70;;;;;;7425132;19;19918;-81
2023/04/14 04:14:45;;;;;;;1.15;0.30;;;10.40;77.70;;;;;;7422486;19;19942;-81
2023/04/14 04:17:15;;;;;;;1.27;0.32;;;10.40;78.00;;;;;;7422564;19;19918;-81
2023/04/14 04:19:43;;;;;;;2.10;0.40;;;10.40;78.20;;;;;;7426004;19;19981;-82
2023/04/14 04:22:15;;;;;;;1.70;0.40;;;10.40;78.30;;;;;;7422178;19;19921;-81
2023/04/14 04:24:43;;;;;;;1.33;0.30;;;10.50;78.30;;;;;;7422842;19;19947;-81
2023/04/14 04:27:09;;;;;;;3.28;0.47;;;10.60;78.10;;;;;;7423481;19;19922;-81
2023/04/14 04:29:37;;;;;;;3.33;0.68;;;10.60;77.90;;;;;;7426889;19;19930;-82
2023/04/14 04:32:05;;;;;;;0.68;0.28;;;10.60;78.10;;;;;;7422286;19;19981;-81
2023/04/14 04:34:32;;;;;;;0.65;0.30;;;10.60;78.10;;;;;;7427194;19;19925;-82
2023/04/14 04:37:01;;;;;;;2.47;0.73;;;10.60;78.00;;;;;;7426013;19;19945;-82
2023/04/14 04:39:29;;;;;;;1.55;0.60;;;10.60;78.20;;;;;;7404090;19;19955;-82
2023/04/14 04:42:05;;;;;;;1.20;0.30;;;10.60;78.10;;;;;;7424081;19;19911;-82
2023/04/14 04:44:32;;;;;;;1.35;0.50;;;10.60;78.30;;;;;;7424010;19;19992;-81
2023/04/14 04:46:59;;;;;;;2.22;0.60;;;10.50;78.10;;;;;;7425663;19;19931;-82
2023/04/14 04:49:26;;;;;;;3.78;0.63;;;10.50;78.30;;;;;;7424736;19;19955;-84
2023/04/14 04:51:52;;;;;;;2.80;0.63;;;10.50;78.50;;;;;;7422845;19;19925;-82
2023/04/14 04:54:18;;;;;;;3.63;0.73;;;10.50;78.60;;;;;;7422865;19;19915;-82
2023/04/14 04:56:45;;;;;;;2.47;0.32;;;10.40;78.40;;;;;;7425786;19;19946;-81
2023/04/14 04:59:11;;;;;;;2.10;0.60;;;10.50;78.40;;;;;;7424406;19;20262;-82
2023/04/14 05:01:37;;;;;;;1.42;0.47;;;10.50;78.30;;;;;;7421872;19;19950;-82
2023/04/14 05:04:03;;;;;;;3.28;1.10;;;10.50;78.20;;;;;;7420217;19;19924;-82
2023/04/14 05:06:28;;;;;;;2.75;0.90;;;10.50;78.20;;;;;;7426504;19;19914;-83
2023/04/14 05:08:55;;;;;;;2.70;0.70;;;10.50;78.30;;;;;;7425249;19;19918;-81
2023/04/14 05:11:21;;;;;;;2.70;0.70;;;10.50;78.30;;;;;;7419550;19;19954;-82
2023/04/14 05:13:47;;;;;;;2.78;0.68;;;10.50;78.40;;;;;;7427221;19;19933;-81
2023/04/14 05:16:13;;;;;;;3.97;0.70;;;10.40;78.60;;;;;;7421083;19;19926;-82
2023/04/14 05:18:41;;;;;;;7.82;1.20;;;10.50;78.50;;;;;;7428281;19;20015;-83
2023/04/14 05:21:08;;;;;;;6.20;1.10;;;10.50;78.50;;;;;;7423791;19;19915;-82
2023/04/14 05:23:38;;;;;;;4.03;0.80;;;10.50;78.50;;;;;;7427920;19;19943;-85
2023/04/14 05:26:05;;;;;;;4.63;0.85;;;10.40;78.70;;;;;;7426250;19;19939;-83
2023/04/14 05:28:31;;;;;;;4.22;0.82;;;10.30;79.00;;;;;;7426055;19;19919;-83
2023/04/14 05:30:57;;;;;;;4.05;0.80;;;10.30;79.30;;;;;;7422089;19;20477;-80
2023/04/14 05:33:23;;;;;;;2.55;0.63;;;10.30;79.40;;;;;;7422040;19;19951;-82
2023/04/14 05:35:50;;;;;;;4.15;0.80;;;10.40;79.60;;;;;;7399894;19;19945;-83
2023/04/14 05:38:18;;;;;;;5.50;0.90;;;10.40;80.70;;;;;;7417275;19;19914;-83
2023/04/14 05:40:45;;;;;;;4.18;0.75;;;10.60;81.90;;;;;;7420877;19;19928;-82
2023/04/14 05:43:10;;;;;;;3.97;0.63;;;10.70;82.00;;;;;;7422477;19;19920;-82
2023/04/14 05:45:36;;;;;;;5.00;0.80;;;10.70;82.20;;;;;;7421704;19;19918;-83
2023/04/14 05:48:05;;;;;;;3.17;1.15;;;10.70;81.80;;;;;;7422048;19;19918;-80
2023/04/14 05:50:32;;;;;;;3.95;1.10;;;10.80;81.20;;;;;;7425233;19;19932;-81
2023/04/14 05:52:58;;;;;;;4.43;0.70;;;10.90;80.00;;;;;;7423436;19;19922;-80
2023/04/14 05:55:25;;;;;;;4.75;1.02;;;11.00;78.70;;;;;;7419439;19;19915;-82
2023/04/14 05:57:51;;;;;;;6.15;1.00;;;11.00;78.80;;;;;;7421537;19;19928;-80
2023/04/14 06:00:17;;;;;;;4.72;1.00;;;11.10;79.20;;;;;;7421498;19;19922;-81
2023/04/14 06:02:44;;;;;;;3.88;0.82;;;11.10;79.30;;;;;;7422019;19;19926;-80
2023/04/14 06:05:11;;;;;;;3.83;0.93;;;11.20;78.70;;;;;;7421157;19;19926;-80
2023/04/14 06:07:40;;;;;;;4.10;1.00;;;11.30;78.70;;;;;;7420389;19;19926;-80
2023/04/14 06:10:07;;;;;;;5.05;0.80;;;11.40;79.20;;;;;;7421214;19;19950;-81
2023/04/14 06:12:32;;;;;;;3.83;0.90;;;11.40;78.60;;;;;;7419757;19;19931;-80
2023/04/14 06:15:00;;;;;;;4.95;1.08;;;11.50;78.30;;;;;;7420247;19;19918;-83
2023/04/14 06:17:27;;;;;;;4.38;1.10;;;11.60;77.30;;;;;;7421952;19;19929;-81
2023/04/14 06:19:52;;;;;;;;;;;11.80;76.80;;;;;;7426763;19;19914;-81
2023/04/14 06:22:18;;;;;;;5.53;1.30;;;11.90;76.20;;;;;;7418352;19;19930;-82
2023/04/14 06:24:45;;;;;;;2.63;0.90;;;12.00;76.10;;;;;;7419878;19;20343;-81
2023/04/14 06:27:11;;;;;;;5.80;1.10;;;12.10;75.70;;;;;;7415228;19;19917;-80
2023/04/14 06:29:36;;;;;;;6.20;0.90;;;12.20;75.10;;;;;;7423435;19;19915;-82
2023/04/14 06:32:02;;;;;;;5.10;1.10;;;12.20;73.90;;;;;;7419801;19;19982;-84
2023/04/14 06:34:28;;;;;;;3.63;0.95;;;12.20;73.30;;;;;;7416584;19;19926;-81
2023/04/14 06:36:55;;;;;;;5.13;0.85;;;12.20;73.20;;;;;;7419660;19;19922;-82
2023/04/14 06:39:21;;;;;;;2.47;0.55;;;12.30;72.70;;;;;;7416052;19;19914;-81
2023/04/14 06:41:47;;;;;;;2.67;0.60;;;12.30;72.20;;;;;;7400305;19;19915;-82
2023/04/14 06:44:16;;;;;;;3.65;0.70;;;12.20;72.30;;;;;;7414270;19;19926;-81
2023/04/14 06:46:44;;;;;;;4.82;0.70;;;12.20;72.50;;;;;;7418090;19;19940;-81
2023/04/14 06:49:09;;;;;;;4.93;0.70;;;12.20;72.60;;;;;;7419915;19;19918;-81
2023/04/14 06:51:35;;;;;;;3.28;0.75;;;12.20;72.50;;;;;;7421487;19;20342;-82
2023/04/14 06:54:01;;;;;;;5.13;0.80;;;12.20;72.40;;;;;;7417811;19;19923;-81
2023/04/14 06:56:27;;;;;;;3.05;0.60;;;12.20;72.40;;;;;;7418268;19;19951;-80
2023/04/14 06:58:53;;;;;;;4.47;1.10;;;12.20;72.30;;;;;;7406344;19;20257;-84
2023/04/14 07:01:19;;;;;;;5.13;0.80;;;12.10;72.60;;;;;;7389259;19;19994;-72
2023/04/14 07:03:45;;;;;;;7.22;1.08;;;12.30;72.60;;;;;;7387644;19;20331;-73
2023/04/14 07:06:15;;;;;;;6.00;0.90;;;12.40;72.70;;;;;;7389639;19;19922;-72
2023/04/14 07:08:42;;;;;;;3.72;1.00;;;12.40;72.60;;;;;;7389862;19;20254;-72
2023/04/14 07:11:10;;;;;;;5.88;1.00;;;12.60;72.40;;;;;;7364729;19;19918;-72
2023/04/14 07:13:37;;;;;;;3.40;0.77;;;12.80;72.00;;;;;;7393785;19;19914;-72
2023/04/14 07:16:05;;;;;;;2.70;0.80;;;12.90;71.60;;;;;;7398910;19;19921;-72
2023/04/14 07:18:31;;;;;;;4.78;0.85;;;12.90;71.70;;;;;;7396020;19;19917;-72
2023/04/14 07:21:00;;;;;;;5.93;1.00;;;12.90;73.40;;;;;;7403567;19;19919;-72
2023/04/14 07:23:27;;;;;;;6.25;1.02;;;13.00;73.60;;;;;;7388498;19;19940;-72
2023/04/14 07:25:54;;;;;;;3.65;0.85;;;13.10;73.20;;;;;;7400695;19;19929;-71
2023/04/14 07:28:21;;;;;;;4.13;1.05;;;13.10;72.90;;;;;;7396842;19;19990;-73
2023/04/14 07:30:48;;;;;;;;;;;13.00;72.40;;;;;;7398355;19;20258;-74
2023/04/14 07:33:17;;;;;;;6.15;1.05;;;13.00;72.80;;;;;;7403280;19;19922;-73
2023/04/14 07:35:44;;;;;;;2.75;0.80;;;13.00;72.90;;;;;;7401688;19;19919;-73
2023/04/14 07:38:09;;;;;;;6.43;1.05;;;13.10;72.90;;;;;;7399180;19;19919;-73
2023/04/14 07:40:35;;;;;;;4.88;1.23;;;13.20;72.40;;;;;;7395358;19;19971;-73
2023/04/14 07:43:01;;;;;;;4.22;1.20;;;13.10;72.80;;;;;;7400439;19;20282;-72
2023/04/14 07:45:27;;;;;;;4.72;0.80;;;13.00;73.70;;;;;;7394984;19;19931;-73
2023/04/14 07:47:52;;;;;;;5.40;1.02;;;13.00;75.10;;;;;;7406062;19;19922;-74
2023/04/14 07:50:18;;;;;;;3.42;0.80;;;13.20;75.30;;;;;;7405340;19;19936;-73
2023/04/14 07:52:44;;;;;;;3.75;0.70;;;12.90;73.50;;;;;;7402407;19;19930;-73
2023/04/14 07:55:10;;;;;;;6.63;0.90;;;13.00;73.60;;;;;;7400759;19;19918;-73
2023/04/14 07:57:36;;;;;;;4.50;0.85;;;13.00;73.40;;;;;;7396314;19;19921;-73
2023/04/14 08:00:02;;;;;;;4.47;1.23;;;13.10;74.30;;;;;;7403119;19;19915;-72
2023/04/14 08:02:29;;;;;;;4.70;0.98;;;13.30;74.10;;;;;;7396419;19;19918;-73
2023/04/14 08:04:55;;;;;;;5.85;1.55;;;13.40;74.00;;;;;;7389646;19;20335;-74
2023/04/14 08:07:20;;;;;;;4.88;0.95;;;13.60;73.90;;;;;;7372013;19;19925;-73
2023/04/14 08:09:48;;;;;;;5.43;0.90;;;13.60;72.70;;;;;;7403130;19;19927;-73
2023/04/14 08:12:14;;;;;;;17.00;8.52;;;13.70;72.10;;;;;;7402683;19;20305;-75
2023/04/14 08:14:41;;;;;;;5.18;1.20;;;13.50;74.20;;;;;;7368619;19;19919;-72
2023/04/14 08:17:06;;;;;;;6.57;1.20;;;13.40;74.90;;;;;;7397745;19;19919;-74
2023/04/14 08:19:32;;;;;;;3.95;0.88;;;13.60;74.90;;;;;;7402322;19;19940;-72
2023/04/14 08:21:58;;;;;;;3.28;0.80;;;13.80;74.90;;;;;;7396841;19;19910;-74
2023/04/14 08:24:24;;;;;;;7.32;1.13;;;13.80;74.40;;;;;;7401478;19;19925;-74
2023/04/14 08:26:50;;;;;;;2.92;1.00;;;14.00;74.70;;;;;;7367031;19;20340;-72
2023/04/14 08:29:16;;;;;;;3.15;0.98;;;14.10;72.80;;;;;;7388568;19;19925;-72
2023/04/14 08:31:42;;;;;;;5.57;1.17;;;14.00;71.30;;;;;;7402102;19;19950;-74
2023/04/14 08:34:07;;;;;;;3.50;1.15;;;14.20;70.80;;;;;;7391836;19;20316;-74
2023/04/14 08:36:36;;;;;;;6.78;0.90;;;14.40;71.10;;;;;;7394451;19;20022;-72
2023/04/14 08:39:03;;;;;;;5.85;1.17;;;14.50;70.00;;;;;;7390054;19;20403;-73
2023/04/14 08:41:33;;;;;;;4.68;0.85;;;14.60;69.40;;;;;;7395380;19;19920;-73
2023/04/14 08:44:00;;;;;;;3.38;0.65;;;14.70;68.30;;;;;;7392729;19;19922;-73
2023/04/14 08:46:30;;;;;;;2.25;0.70;;;14.50;68.10;;;;;;7396259;19;19979;-72
2023/04/14 08:49:07;;;;;;;5.90;0.70;;;13.60;68.70;;;;;;7403946;19;20548;-73
2023/04/14 08:51:39;;;;;;;3.85;0.60;;;13.50;69.30;;;;;;7400153;19;19945;-73
2023/04/14 08:54:08;;;;;;;3.70;1.20;;;13.80;69.10;;;;;;7389613;19;20248;-73
2023/04/14 08:56:37;;;;;;;1.98;0.52;;;13.60;69.00;;;;;;7393926;19;19978;-73
2023/04/14 08:59:05;;;;;;;2.50;0.60;;;13.60;69.00;;;;;;7395183;19;20461;-72
2023/04/14 09:01:32;;;;;;;4.45;1.13;;;13.60;68.80;;;;;;7399200;19;19938;-74
2023/04/14 09:04:00;;;;;;;5.88;1.10;;;13.70;68.80;;;;;;7389050;19;19922;-73
2023/04/14 09:06:26;;;;;;;15.65;2.15;;;13.80;68.60;;;;;;7399495;19;20319;-73
2023/04/14 09:08:53;;;;;;;6.93;1.08;;;13.90;67.90;;;;;;7404435;19;19918;-72
2023/04/14 09:11:18;;;;;;;5.45;0.68;;;14.00;67.10;;;;;;7398445;19;19919;-72
2023/04/14 09:13:45;;;;;;;3.58;0.95;;;14.00;66.60;;;;;;7403435;19;19933;-73
2023/04/14 09:16:12;;;;;;;5.38;0.60;;;14.00;66.40;;;;;;7396817;19;19925;-72
2023/04/14 09:18:39;;;;;;;4.70;0.73;;;13.90;66.90;;;;;;7391689;19;20834;-73
2023/04/14 09:21:05;;;;;;;3.90;0.80;;;13.80;66.90;;;;;;7393278;19;20645;-72
2023/04/14 09:23:32;;;;;;;2.67;0.73;;;14.00;68.50;;;;;;7400319;19;19959;-73
2023/04/14 09:25:58;;;;;;;4.63;0.80;;;14.40;67.60;;;;;;7372612;19;19939;-71
2023/04/14 09:28:24;;;;;;;1.85;0.70;;;14.70;66.70;;;;;;7403107;19;19978;-73
2023/04/14 09:30:50;;;;;;;3.72;1.02;;;14.60;67.00;;;;;;7401007;19;19931;-73
2023/04/14 09:33:20;;;;;;;4.72;0.80;;;15.20;66.80;;;;;;7371015;19;19926;-72
2023/04/14 09:35:51;;;;;;;5.30;0.98;;;16.00;65.00;;;;;;7401316;19;20744;-72
2023/04/14 09:38:35;;;;;;;6.45;1.20;;;15.90;64.80;;;;;;7369609;19;19915;-72
2023/04/14 09:41:03;;;;;;;5.28;1.50;;;15.30;65.90;;;;;;7371021;19;20241;-72
2023/04/14 09:43:29;;;;;;;6.50;1.70;;;15.10;66.30;;;;;;7402518;19;20249;-71
2023/04/14 09:46:03;;;;;;;4.82;0.82;;;15.20;66.40;;;;;;7403474;19;20331;-72
2023/04/14 09:48:29;;;;;;;5.07;1.00;;;14.90;66.10;;;;;;7398391;19;19929;-72
2023/04/14 09:51:05;;;;;;;4.30;1.10;;;15.50;66.00;;;;;;7401649;19;20574;-72
2023/04/14 09:53:41;;;;;;;5.63;0.85;;;15.20;65.60;;;;;;7395063;19;20374;-73
2023/04/14 09:56:09;;;;;;;3.35;0.98;;;15.10;66.10;;;;;;7397588;19;20355;-72
2023/04/14 09:58:42;;;;;;;2.60;0.80;;;15.10;66.70;;;;;;7404417;19;19953;-73
2023/04/14 10:01:18;;;;;;;4.95;0.80;;;15.00;66.80;;;;;;7400209;19;19915;-72
2023/04/14 10:03:48;;;;;;;3.97;0.93;;;15.50;66.00;;;;;;7389967;19;19974;-71
2023/04/14 10:06:22;;;;;;;7.45;2.42;;;16.20;64.30;;;;;;7392016;19;20605;-72
2023/04/14 10:08:49;;;;;;;5.30;0.90;;;15.70;65.00;;;;;;7399736;19;19929;-72
2023/04/14 10:11:28;;;;;;;2.40;0.82;;;15.70;65.60;;;;;;7371902;19;19931;-72
2023/04/14 10:14:02;;;;;;;3.03;1.00;;;15.80;65.60;;;;;;7389225;19;19919;-72
2023/04/14 10:16:28;;;;;;;6.00;1.23;;;16.00;65.50;;;;;;7393235;19;19919;-72
2023/04/14 10:18:56;;;;;;;5.05;1.05;;;16.10;64.80;;;;;;7389734;19;19922;-73
2023/04/14 10:21:23;;;;;;;6.10;1.17;;;16.10;64.90;;;;;;7393990;19;19915;-73
2023/04/14 10:23:49;;;;;;;;;;;16.40;64.80;;;;;;7400249;19;19911;-73
2023/04/14 10:26:15;;;;;;;4.00;0.80;;;16.40;64.40;;;;;;7401608;19;19925;-72
2023/04/14 10:28:52;;;;;;;5.47;1.02;;;16.70;64.10;;;;;;7396497;19;19926;-73
2023/04/14 10:31:27;;;;;;;2.58;0.80;;;17.20;62.60;;;;;;7397631;19;19919;-72
2023/04/14 10:33:53;;;;;;;4.38;1.42;;;17.50;62.80;;;;;;7388179;19;19943;-72
2023/04/14 10:36:27;;;;;;;;;;;18.00;61.90;;;;;;7394060;19;19934;-72
2023/04/14 10:39:02;;;;;;;7.90;1.50;;;18.30;61.10;;;;;;7395088;19;20019;-71
2023/04/14 10:41:46;;;;;;;6.00;1.08;;;18.80;59.90;;;;;;7395625;19;19914;-72
2023/04/14 10:44:24;;;;;;;5.53;1.73;;;19.00;59.00;;;;;;7400294;19;19925;-72
2023/04/14 10:46:51;;;;;;;7.25;1.50;;;19.90;57.60;;;;;;7401129;19;19921;-72
2023/04/14 10:49:17;;;;;;;4.95;1.20;;;19.70;57.50;;;;;;7395905;19;19913;-72
2023/04/14 10:51:46;;;;;;;8.18;1.70;;;19.30;57.90;;;;;;7399237;19;20003;-71
2023/04/14 10:54:18;;;;;;;10.30;2.53;;;19.20;58.20;;;;;;7399398;19;20265;-72
2023/04/14 10:57:13;;;;;;;7.50;2.03;;;19.40;58.10;;;;;;7400008;19;19922;-72
2023/04/14 10:59:44;;;;;;;6.18;1.70;;;18.40;58.50;;;;;;7398054;19;19930;-72
2023/04/14 11:02:33;;;;;;;6.75;1.50;;;18.40;59.40;;;;;;7399802;19;20007;-73
2023/04/14 11:05:07;;;;;;;4.78;1.85;;;19.30;57.70;;;;;;7399633;19;19929;-72
2023/04/14 11:07:54;;;;;;;7.57;1.80;;;18.30;59.50;;;;;;7399662;19;19941;-72
2023/04/14 11:10:23;;;;;;;8.77;2.00;;;18.80;58.50;;;;;;7398536;19;19922;-72
2023/04/14 11:12:57;;;;;;;10.88;2.17;;;18.60;58.80;;;;;;7397279;19;20357;-72
2023/04/14 11:15:23;;;;;;;9.07;2.03;;;18.40;60.30;;;;;;7396095;19;19922;-72
2023/04/14 11:17:50;;;;;;;9.27;1.80;;;19.40;58.80;;;;;;7399428;19;19928;-72
2023/04/14 11:20:18;;;;;;;8.30;2.30;;;19.40;58.30;;;;;;7399537;19;19934;-73
2023/04/14 11:22:45;;;;;;;4.93;1.25;;;19.40;57.40;;;;;;7397495;19;20377;-72
2023/04/14 11:25:13;;;;;;;5.72;1.52;;;20.60;56.60;;;;;;7395005;19;19927;-72
2023/04/14 11:27:39;;;;;;;6.03;1.55;;;21.10;55.10;;;;;;7397686;19;19931;-72
2023/04/14 11:30:15;;;;;;;5.20;1.55;;;21.30;55.00;;;;;;7396494;19;19925;-73
2023/04/14 11:32:47;;;;;;;7.55;1.48;;;21.90;54.20;;;;;;7396607;19;19929;-72
2023/04/14 11:35:14;;;;;;;6.55;2.40;;;21.30;54.40;;;;;;7398442;19;20303;-73
2023/04/14 11:37:40;;;;;;;4.22;1.45;;;20.80;55.90;;;;;;7395183;19;19995;-72
2023/04/14 11:40:08;;;;;;;4.97;1.45;;;19.70;58.10;;;;;;7397056;19;19919;-72
2023/04/14 11:42:34;;;;;;;5.22;1.98;;;20.30;57.70;;;;;;7398031;19;19923;-72
2023/04/14 11:45:02;;;;;;;5.60;2.10;;;20.10;57.60;;;;;;7398448;19;19930;-72
2023/04/14 11:47:29;;;;;;;11.60;2.75;;;19.90;58.50;;;;;;7397885;19;20030;-73
2023/04/14 11:49:55;;;;;;;7.05;2.45;;;20.60;58.80;;;;;;7399988;19;19922;-73
2023/04/14 11:52:21;;;;;;;8.40;2.80;;;20.50;59.10;;;;;;7365031;19;19927;-71
2023/04/14 11:54:48;;;;;;;8.63;2.55;;;20.80;59.30;;;;;;7397972;19;19975;-72
2023/04/14 11:57:17;;;;;;;6.45;2.08;;;20.10;61.70;;;;;;7397650;19;19922;-72
2023/04/14 11:59:44;;;;;;;6.38;1.98;;;21.00;59.90;;;;;;7398670;19;19921;-71
2023/04/14 12:02:20;;;;;;;7.07;1.95;;;21.80;57.70;;;;;;7401993;19;19935;-72
2023/04/14 12:04:48;;;;;;;7.38;2.30;;;20.60;58.70;;;;;;7408020;19;19926;-71
2023/04/14 12:07:17;;;;;;;6.40;1.63;;;20.60;59.00;;;;;;7403299;19;19914;-72
2023/04/14 12:09:48;;;;;;;5.55;1.90;;;20.70;58.30;;;;;;7405807;19;20014;-72
2023/04/14 12:12:15;;;;;;;6.55;2.03;;;20.80;58.60;;;;;;7399647;19;19922;-74
2023/04/14 12:14:49;;;;;;;4.72;1.60;;;20.70;58.30;;;;;;7404803;19;19925;-72
2023/04/14 12:17:16;;;;;;;7.55;2.22;;;21.20;57.60;;;;;;7398548;19;19926;-73
2023/04/14 12:19:42;;;;;;;6.15;2.20;;;22.20;56.60;;;;;;7406551;19;19910;-72
2023/04/14 12:22:08;;;;;;;7.95;2.28;;;23.60;55.00;;;;;;7400121;19;19922;-73
2023/04/14 12:24:36;;;;;;;7.30;1.95;;;24.20;53.90;;;;;;7404324;19;19929;-72
2023/04/14 12:27:05;;;;;;;8.15;1.98;;;22.30;54.90;;;;;;7397884;19;19922;-73
2023/04/14 12:29:34;;;;;;;8.85;2.65;;;21.90;56.50;;;;;;7403416;19;20563;-71
2023/04/14 12:32:10;;;;;;;6.78;1.70;;;21.00;57.30;;;;;;7406475;19;20032;-71
2023/04/14 12:34:36;;;;;;;6.63;1.55;;;20.70;58.40;;;;;;7402628;19;19923;-72
2023/04/14 12:37:09;;;;;;;6.03;1.50;;;20.00;59.30;;;;;;7399100;19;20350;-71
2023/04/14 12:39:59;;;;;;;5.82;1.73;;;19.80;60.00;;;;;;7402790;19;20007;-71
2023/04/14 12:42:26;;;;;;;4.78;1.48;;;20.10;60.40;;;;;;7399247;19;19922;-71
2023/04/14 12:44:56;;;;;;;6.65;1.83;;;21.10;59.40;;;;;;7405408;19;19914;-72
2023/04/14 12:47:40;;;;;;;6.72;2.05;;;20.20;59.80;;;;;;7399391;19;20010;-71
2023/04/14 12:50:29;;;;;;;4.18;1.30;;;19.90;60.60;;;;;;7369726;19;19918;-74
2023/04/14 12:52:56;;;;;;;4.80;1.10;;;19.30;62.10;;;;;;7391600;19;19919;-73
2023/04/14 12:55:22;;;;;;;;;;;19.20;62.80;;;;;;7403086;19;19929;-73
2023/04/14 12:57:55;;;;;;;6.53;1.88;;;19.50;63.50;;;;;;7400488;19;19922;-72